Time;durP1;ratioP1;P1;durP2;ratioP2;P2;SDS_P1;SDS_P2;PMS_P1;PMS_P2;Temp;Humidity;BMP_temperature;BMP_pressure;BME280_temperature;BME280_humidity;BME280_pressure;Samples;Min_cycle;Max_cycle;Signal;HPM_P1;HPM_P2
2022/09/26 00:01:28;;;;;;;6.32;3.65;;;;;;;-148.88;93.75;75639.09;5017793;28;20028;-78
2022/09/26 00:03:56;;;;;;;5.78;3.15;;;;;;;-148.88;93.69;75630.97;5019321;28;20041;-79
2022/09/26 00:06:22;;;;;;;5.28;3.50;;;;;;;-148.88;93.31;75624.88;5019369;28;20053;-79
2022/09/26 00:08:49;;;;;;;6.90;3.60;;;;;;;-148.88;93.17;75626.91;5017730;28;20029;-79
2022/09/26 00:11:17;;;;;;;5.78;3.35;;;;;;;-148.88;93.46;75622.84;5019484;28;20026;-78
2022/09/26 00:13:43;;;;;;;4.57;3.35;;;;;;;-148.88;94.00;75626.91;5018338;28;20037;-78
2022/09/26 00:16:10;;;;;;;7.15;3.42;;;;;;;-148.88;93.63;75622.84;5019533;28;20034;-79
2022/09/26 00:18:35;;;;;;;5.50;3.15;;;;;;;-148.88;93.63;75614.72;5019556;28;20045;-78
2022/09/26 00:21:12;;;;;;;5.85;3.30;;;;;;;-148.88;93.70;75608.63;5018715;28;20018;-80
2022/09/26 00:23:37;;;;;;;5.20;3.15;;;;;;;-148.88;94.09;75618.78;5017992;28;20021;-79
2022/09/26 00:26:03;;;;;;;6.60;3.20;;;;;;;-148.88;93.96;75612.69;5017715;28;20054;-78
2022/09/26 00:28:28;;;;;;;5.40;2.97;;;;;;;-148.88;94.10;75602.53;5016713;28;20423;-77
2022/09/26 00:30:55;;;;;;;5.57;2.95;;;;;;;-148.88;93.92;75596.44;5017664;28;20092;-78
2022/09/26 00:33:21;;;;;;;5.65;2.85;;;;;;;-148.88;93.70;75586.31;5016402;28;20021;-79
2022/09/26 00:35:54;;;;;;;5.85;3.20;;;;;;;-148.88;93.50;75580.22;5016844;28;20525;-78
2022/09/26 00:38:20;;;;;;;5.35;3.33;;;;;;;-148.88;93.71;75586.31;5018604;28;20026;-79
2022/09/26 00:40:47;;;;;;;4.68;2.90;;;;;;;-148.88;94.59;75598.47;5017468;28;20049;-78
2022/09/26 00:43:36;;;;;;;6.10;3.30;;;;;;;-148.88;94.53;75590.34;5018103;28;20018;-79
2022/09/26 00:46:20;;;;;;;5.43;3.30;;;;;;;-148.88;94.13;75592.38;5018530;28;20026;-78
2022/09/26 00:48:50;;;;;;;6.25;3.40;;;;;;;-148.88;94.35;75594.44;5017452;28;20037;-79
2022/09/26 00:51:16;;;;;;;6.45;3.25;;;;;;;-148.88;95.02;75586.31;5017853;28;20033;-78
2022/09/26 00:53:47;;;;;;;5.10;3.03;;;;;;;-148.88;95.03;75582.22;5020011;28;20361;-78
2022/09/26 00:56:21;;;;;;;5.15;3.00;;;;;;;-148.88;94.85;75588.34;5019442;28;20084;-80
2022/09/26 00:59:13;;;;;;;5.25;2.08;;;;;;;-148.88;95.16;75592.38;5019554;28;20089;-80
2022/09/26 01:01:38;;;;;;;6.68;3.67;;;;;;;-148.88;95.73;75588.34;5008392;28;20034;-79
2022/09/26 01:04:05;;;;;;;5.10;2.97;;;;;;;-148.88;95.26;75584.25;5014723;28;20135;-78
2022/09/26 01:06:31;;;;;;;6.80;2.95;;;;;;;-148.88;95.49;75586.31;5016713;28;20026;-78
2022/09/26 01:09:00;;;;;;;4.75;3.20;;;;;;;-148.88;95.40;75570.03;5015628;28;20029;-78
2022/09/26 01:11:27;;;;;;;4.55;2.90;;;;;;;-148.88;95.21;75566.00;5017126;28;20101;-78
2022/09/26 01:13:53;;;;;;;6.03;3.40;;;;;;;-148.88;94.84;75566.00;5017126;28;20030;-79
2022/09/26 01:16:19;;;;;;;7.35;3.22;;;;;;;-148.88;95.67;75566.00;5016404;28;20031;-79
2022/09/26 01:18:46;;;;;;;6.68;3.05;;;;;;;-148.88;95.34;75557.88;5018432;28;20111;-78
2022/09/26 01:21:47;;;;;;;4.20;2.95;;;;;;;-148.88;96.09;75557.88;5018060;28;20097;-79
2022/09/26 01:24:46;;;;;;;3.92;3.22;;;;;;;-148.88;95.57;75553.81;5018646;28;20037;-79
2022/09/26 01:27:42;;;;;;;5.90;3.05;;;;;;;-148.88;95.62;75553.81;5018021;28;20037;-79
2022/09/26 01:30:20;;;;;;;6.07;3.45;;;;;;;-148.88;96.56;75557.88;5016457;28;20080;-79
2022/09/26 01:33:30;;;;;;;4.30;2.95;;;;;;;-148.88;95.64;75539.59;5016092;28;20408;-79
2022/09/26 01:36:19;;;;;;;7.22;3.72;;;;;;;-148.88;96.11;75547.72;5018057;28;20030;-78
2022/09/26 01:39:01;;;;;;;4.68;3.13;;;;;;;-148.88;95.91;75545.69;5016227;28;20026;-79
2022/09/26 01:41:42;;;;;;;4.45;3.28;;;;;;;-148.88;95.89;75533.50;5014916;28;20384;-78
2022/09/26 01:44:28;;;;;;;4.95;3.35;;;;;;;-148.88;96.00;75529.44;5014797;28;20037;-79
2022/09/26 01:46:57;;;;;;;5.32;3.53;;;;;;;-148.88;96.48;75529.44;5016603;28;20034;-77
2022/09/26 01:49:58;;;;;;;6.53;3.28;;;;;;;-148.88;96.61;75525.38;5016905;28;20026;-79
2022/09/26 01:52:39;;;;;;;6.00;3.80;;;;;;;-148.88;96.20;75525.38;5017786;28;20499;-78
2022/09/26 01:55:17;;;;;;;7.47;4.20;;;;;;;-148.88;97.13;75523.34;5017995;28;20022;-79
2022/09/26 01:57:55;;;;;;;5.50;4.10;;;;;;;-148.88;97.37;75513.19;5016550;28;20025;-78
2022/09/26 02:00:20;;;;;;;6.45;4.40;;;;;;;-148.88;97.69;75509.13;5016007;28;20026;-79
2022/09/26 02:02:47;;;;;;;7.60;4.60;;;;;;;-148.88;97.71;75505.06;5015618;28;20117;-77
2022/09/26 02:05:21;;;;;;;6.47;4.57;;;;;;;-148.88;97.73;75490.84;5017380;28;20025;-79
2022/09/26 02:08:03;;;;;;;6.50;4.95;;;;;;;-148.88;97.45;75482.72;5017980;28;20026;-79
2022/09/26 02:10:35;;;;;;;9.50;5.22;;;;;;;-148.88;97.77;75482.72;5017581;28;20109;-79
2022/09/26 02:13:10;;;;;;;8.45;5.40;;;;;;;-148.88;97.80;75476.63;5017193;28;20029;-80
2022/09/26 02:15:38;;;;;;;10.82;6.43;;;;;;;-148.88;97.92;75476.63;5017955;28;20037;-79
2022/09/26 02:18:17;;;;;;;8.05;5.38;;;;;;;-148.88;98.15;75468.50;5014879;28;20396;-77
2022/09/26 02:20:50;;;;;;;8.82;5.80;;;;;;;-148.88;97.94;75462.41;5013787;28;20030;-78
2022/09/26 02:23:16;;;;;;;10.15;5.88;;;;;;;-148.88;97.81;75456.31;5014813;28;20029;-79
2022/09/26 02:25:41;;;;;;;11.35;6.60;;;;;;;-148.88;97.57;75458.34;5016349;28;20025;-79
2022/09/26 02:28:06;;;;;;;9.50;6.18;;;;;;;-148.88;97.49;75448.19;5016720;28;20144;-78
2022/09/26 02:30:32;;;;;;;9.32;6.25;;;;;;;-148.88;97.73;75448.19;5017047;28;20029;-78
2022/09/26 02:32:58;;;;;;;10.63;7.65;;;;;;;-148.88;97.94;75446.16;5018125;28;20112;-79
2022/09/26 02:38:08;;;;;;;12.52;8.00;;;;;;;-148.88;97.78;75438.03;5018989;28;20460;-78
2022/09/26 02:40:47;;;;;;;10.93;7.57;;;;;;;-148.88;97.33;75427.88;5018304;28;20022;-78
2022/09/26 02:43:31;;;;;;;11.15;7.13;;;;;;;-148.88;97.54;75427.88;5019070;28;20469;-78
2022/09/26 02:46:31;;;;;;;10.52;7.43;;;;;;;-148.88;97.73;75436.00;5018059;28;20030;-79
2022/09/26 02:49:30;;;;;;;10.70;7.38;;;;;;;-148.88;97.61;75429.91;5017611;28;20030;-79
2022/09/26 02:52:09;;;;;;;12.95;7.15;;;;;;;-148.88;97.34;75423.81;5018482;28;20030;-79
2022/09/26 02:54:46;;;;;;;13.52;7.88;;;;;;;-148.88;97.53;75421.78;5016078;28;20029;-77
2022/09/26 02:57:50;;;;;;;13.32;7.13;;;;;;;-148.88;97.47;75415.69;5015569;28;20180;-78
2022/09/26 03:00:21;;;;;;;9.15;5.40;;;;;;;-148.88;97.44;75427.88;5016276;28;20121;-79
2022/09/26 03:03:12;;;;;;;10.82;8.32;;;;;;;-148.88;97.86;75409.59;5018856;28;20026;-78
2022/09/26 03:05:42;;;;;;;12.50;7.90;;;;;;;-148.88;97.34;75419.75;5017632;28;20026;-79
2022/09/26 03:08:22;;;;;;;12.63;8.45;;;;;;;-148.88;98.00;75411.63;5015776;28;20048;-79
2022/09/26 03:10:48;;;;;;;15.15;7.95;;;;;;;-148.88;97.89;75403.50;5017737;28;20090;-80
2022/09/26 03:13:15;;;;;;;11.88;8.38;;;;;;;-148.88;97.71;75403.50;5018627;28;20068;-78
2022/09/26 03:15:47;;;;;;;11.65;8.25;;;;;;;-148.88;97.61;75399.44;5018170;28;20021;-77
2022/09/26 03:18:19;;;;;;;14.18;8.82;;;;;;;-148.88;97.47;75401.47;5016872;28;20113;-79
2022/09/26 03:20:45;;;;;;;10.40;7.72;;;;;;;-148.88;97.91;75391.31;5016493;28;20025;-78
2022/09/26 03:23:11;;;;;;;12.55;8.63;;;;;;;-148.88;97.80;75395.38;5018101;28;20030;-78
2022/09/26 03:25:37;;;;;;;11.05;8.30;;;;;;;-148.88;97.78;75395.38;5019779;28;20061;-78
2022/09/26 03:28:02;;;;;;;13.35;9.13;;;;;;;-148.88;98.07;75383.19;5020805;28;20097;-79
2022/09/26 03:30:28;;;;;;;11.48;7.43;;;;;;;-148.88;97.76;75383.19;5022559;28;20026;-78
2022/09/26 03:32:54;;;;;;;9.55;8.05;;;;;;;-148.88;97.18;75379.13;5019656;28;20021;-78
2022/09/26 03:35:20;;;;;;;10.43;7.75;;;;;;;-148.88;97.33;75385.22;5023042;28;20052;-77
2022/09/26 03:37:46;;;;;;;12.35;7.40;;;;;;;-148.88;97.15;75385.22;5022765;28;20025;-78
2022/09/26 03:40:12;;;;;;;10.07;7.88;;;;;;;-148.88;97.41;75383.19;5024009;28;20018;-78
2022/09/26 03:42:38;;;;;;;11.40;7.50;;;;;;;-148.88;97.17;75387.25;5022398;28;20030;-77
2022/09/26 03:45:07;;;;;;;11.35;7.10;;;;;;;-148.88;97.67;75387.25;5023930;28;20025;-78
2022/09/26 03:47:33;;;;;;;11.40;7.88;;;;;;;-148.88;97.35;75387.25;5023596;28;20032;-78
2022/09/26 03:49:58;;;;;;;11.40;7.63;;;;;;;-148.88;97.60;75391.31;5022554;28;20081;-77
2022/09/26 03:52:25;;;;;;;10.15;4.70;;;;;;;-148.88;97.10;75399.44;5022611;28;20494;-78
2022/09/26 03:54:51;;;;;;;11.60;6.82;;;;;;;-148.88;97.07;75385.22;5024157;28;20026;-78
2022/09/26 03:57:16;;;;;;;12.23;7.05;;;;;;;-148.88;97.82;75399.44;5021707;28;20120;-78
2022/09/26 03:59:42;;;;;;;10.30;4.70;;;;;;;-148.88;97.75;75393.34;5021077;28;20064;-79
2022/09/26 04:02:08;;;;;;;11.18;6.75;;;;;;;-148.88;97.97;75403.50;5021133;28;20087;-77
2022/09/26 04:04:34;;;;;;;10.15;7.18;;;;;;;-148.88;97.93;75391.31;5020027;28;20033;-79
2022/09/26 04:06:59;;;;;;;11.90;6.68;;;;;;;-148.88;97.67;75383.19;5021581;28;20026;-79
2022/09/26 04:09:25;;;;;;;10.30;6.85;;;;;;;-148.88;97.72;75383.19;5018899;28;20092;-78
2022/09/26 04:11:52;;;;;;;7.88;6.68;;;;;;;-148.88;97.61;75375.06;5023772;28;20064;-78
2022/09/26 04:14:18;;;;;;;9.68;6.15;;;;;;;-148.88;97.49;75360.84;5023897;28;20106;-77
2022/09/26 04:16:46;;;;;;;11.10;6.68;;;;;;;-148.88;97.46;75362.88;5023452;28;20539;-77
2022/09/26 04:19:12;;;;;;;8.88;6.82;;;;;;;-148.88;97.48;75366.94;5021944;28;20048;-78
2022/09/26 04:21:39;;;;;;;11.65;6.38;;;;;;;-148.88;97.54;75364.91;5022711;28;20025;-77
2022/09/26 04:24:06;;;;;;;10.07;6.82;;;;;;;-148.88;97.29;75350.69;5022792;28;20026;-77
2022/09/26 04:26:31;;;;;;;10.82;7.28;;;;;;;-148.88;97.57;75346.63;5020708;28;20022;-79
2022/09/26 04:28:57;;;;;;;9.77;7.18;;;;;;;-148.88;97.17;75334.44;5022750;28;20068;-80
2022/09/26 04:31:26;;;;;;;13.30;7.63;;;;;;;-148.88;97.76;75332.41;5021250;28;20086;-79
2022/09/26 04:33:53;;;;;;;11.27;7.18;;;;;;;-148.88;97.71;75326.31;5020317;28;20018;-78
2022/09/26 04:36:18;;;;;;;13.98;8.15;;;;;;;-148.88;97.10;75318.19;5017829;28;20026;-77
2022/09/26 04:38:44;;;;;;;8.15;4.35;;;;;;;-148.88;97.38;75301.94;5017179;28;20044;-77
2022/09/26 04:41:12;;;;;;;10.48;7.90;;;;;;;-148.88;97.17;75301.94;5017705;28;20093;-78
2022/09/26 04:43:37;;;;;;;11.55;7.00;;;;;;;-148.88;96.85;75297.88;5017556;28;20025;-78
2022/09/26 04:46:08;;;;;;;10.38;7.68;;;;;;;-148.88;97.00;75289.75;5017101;28;20029;-77
2022/09/26 04:48:34;;;;;;;11.57;7.22;;;;;;;-148.88;96.43;75277.59;5015486;28;20026;-77
2022/09/26 04:51:13;;;;;;;9.00;6.85;;;;;;;-148.88;96.84;75269.47;5015615;28;20091;-77
2022/09/26 04:53:40;;;;;;;10.30;7.57;;;;;;;-148.88;96.64;75269.47;5015137;28;20404;-77
2022/09/26 04:56:07;;;;;;;11.70;7.05;;;;;;;-148.88;96.90;75269.47;5015391;28;20084;-78
2022/09/26 04:58:33;;;;;;;10.82;7.13;;;;;;;-148.88;96.96;75269.47;5016131;28;20108;-77
2022/09/26 05:01:04;;;;;;;8.82;7.30;;;;;;;-148.88;97.20;75267.44;5014696;28;20045;-77
2022/09/26 05:03:29;;;;;;;11.80;6.75;;;;;;;-148.88;97.20;75273.53;5013402;28;20111;-77
2022/09/26 05:05:55;;;;;;;13.63;7.43;;;;;;;-148.88;96.74;75265.41;5014444;28;20029;-77
2022/09/26 05:08:22;;;;;;;11.80;7.22;;;;;;;-148.88;96.93;75261.34;5016476;28;20081;-80
2022/09/26 05:10:56;;;;;;;11.02;7.55;;;;;;;-148.88;96.90;75263.38;5014218;28;20104;-77
2022/09/26 05:13:23;;;;;;;14.45;8.30;;;;;;;-148.88;96.42;75253.22;5014886;28;20603;-77
2022/09/26 05:15:52;;;;;;;12.07;7.30;;;;;;;-148.88;96.11;75232.91;5014850;28;20065;-78
2022/09/26 05:18:17;;;;;;;11.10;7.25;;;;;;;-148.88;95.84;75228.84;5015112;28;20022;-78
2022/09/26 05:20:47;;;;;;;10.90;7.88;;;;;;;-148.88;95.64;75224.78;5015070;28;20033;-77
2022/09/26 05:26:18;;;;;;;9.77;7.20;;;;;;;-148.88;96.01;75228.84;5016112;28;20026;-77
2022/09/26 05:28:42;;;;;;;12.65;7.82;;;;;;;-148.88;95.25;75228.84;5014946;28;20068;-78
2022/09/26 05:31:07;;;;;;;11.35;6.95;;;;;;;-148.88;95.76;75232.91;5015086;28;20025;-77
2022/09/26 05:33:36;;;;;;;10.02;6.90;;;;;;;-148.88;95.45;75228.84;5014904;28;20041;-78
2022/09/26 05:36:02;;;;;;;9.57;7.15;;;;;;;-148.88;95.52;75226.81;5015437;28;20037;-77
2022/09/26 05:38:27;;;;;;;10.23;7.13;;;;;;;-148.88;94.94;75220.72;5015176;28;20044;-78
2022/09/26 05:40:55;;;;;;;11.18;7.50;;;;;;;-148.88;95.66;75220.72;5014793;28;20093;-78
2022/09/26 05:43:21;;;;;;;10.07;7.00;;;;;;;-148.88;95.15;75216.66;5014811;28;20026;-77
2022/09/26 05:45:48;;;;;;;10.38;7.05;;;;;;;-148.88;95.30;75218.69;5015063;28;20022;-78
2022/09/26 05:48:15;;;;;;;9.98;7.90;;;;;;;-148.88;94.91;75210.56;5013738;28;20075;-77
2022/09/26 05:50:42;;;;;;;12.93;7.15;;;;;;;-148.88;95.43;75204.47;5013316;28;20041;-77
2022/09/26 05:53:07;;;;;;;14.85;8.00;;;;;;;-148.88;94.72;75208.53;5014393;28;20025;-77
2022/09/26 05:55:32;;;;;;;9.55;7.28;;;;;;;-148.88;94.83;75196.34;5014352;28;20052;-77
2022/09/26 05:57:58;;;;;;;13.40;7.90;;;;;;;-148.88;94.89;75188.22;5014164;28;20049;-77
2022/09/26 06:00:24;;;;;;;11.45;7.78;;;;;;;-148.88;94.61;75188.22;5013727;28;20034;-77
2022/09/26 06:02:55;;;;;;;9.30;5.63;;;;;;;-148.88;94.60;75188.22;5014779;28;20033;-77
2022/09/26 06:05:20;;;;;;;14.60;8.00;;;;;;;-148.88;94.78;75178.06;5014735;28;20018;-77
2022/09/26 06:07:46;;;;;;;11.55;7.53;;;;;;;-148.88;93.91;75165.88;5013168;28;20048;-78
2022/09/26 06:10:12;;;;;;;16.00;8.65;;;;;;;-148.88;95.33;75178.06;5013340;28;20053;-77
2022/09/26 06:12:37;;;;;;;11.50;7.53;;;;;;;-148.88;95.25;75180.09;5014379;28;20029;-77
2022/09/26 06:15:04;;;;;;;10.57;7.95;;;;;;;-148.88;95.05;75178.06;5012883;28;20061;-78
2022/09/26 06:17:29;;;;;;;13.10;8.48;;;;;;;-148.88;95.08;75169.94;5014579;28;20101;-78
2022/09/26 06:19:55;;;;;;;13.25;8.43;;;;;;;-148.88;95.19;75163.84;5013212;28;20049;-77
2022/09/26 06:22:20;;;;;;;12.35;9.20;;;;;;;-148.88;95.01;75159.78;5015016;28;20030;-77
2022/09/26 06:24:45;;;;;;;11.65;8.63;;;;;;;-148.88;94.97;75145.56;5013166;28;20141;-77
2022/09/26 06:27:10;;;;;;;13.13;8.90;;;;;;;-148.88;95.04;75141.50;5014488;28;20021;-77
2022/09/26 06:29:36;;;;;;;14.40;8.98;;;;;;;-148.88;94.75;75125.25;5013293;28;20033;-78
2022/09/26 06:32:02;;;;;;;11.55;8.55;;;;;;;-148.88;94.80;75115.09;5014934;28;20068;-77
2022/09/26 06:34:27;;;;;;;11.88;8.38;;;;;;;-148.88;94.43;75098.84;5014940;28;20105;-78
2022/09/26 06:36:52;;;;;;;11.05;8.98;;;;;;;-148.88;93.89;75090.72;5014806;28;20496;-77
2022/09/26 06:39:17;;;;;;;13.95;8.80;;;;;;;-148.88;93.81;75092.78;5015042;28;20072;-77
2022/09/26 06:41:43;;;;;;;13.43;9.40;;;;;;;-148.88;93.47;75074.50;5014436;28;20053;-77
2022/09/26 06:44:08;;;;;;;16.58;9.35;;;;;;;-148.88;93.63;75068.41;5013222;28;20029;-77
2022/09/26 06:46:34;;;;;;;12.45;9.48;;;;;;;-148.88;93.93;75070.44;5014468;28;20057;-78
2022/09/26 06:48:59;;;;;;;13.02;8.80;;;;;;;-148.88;93.67;75050.13;5013867;28;20484;-77
2022/09/26 06:51:24;;;;;;;12.35;8.95;;;;;;;-148.88;92.87;75042.00;5013261;28;20038;-77
2022/09/26 06:53:50;;;;;;;15.23;9.27;;;;;;;-148.88;92.82;75046.06;5014569;28;20038;-77
2022/09/26 06:56:15;;;;;;;13.40;9.38;;;;;;;-148.88;93.35;75035.91;5014180;28;20507;-77
2022/09/26 06:58:40;;;;;;;12.25;9.45;;;;;;;-148.88;93.00;75033.88;5015597;28;20030;-77
2022/09/26 07:01:06;;;;;;;15.20;10.05;;;;;;;-148.88;93.17;75029.81;5017806;28;20026;-76
2022/09/26 07:03:31;;;;;;;14.88;9.60;;;;;;;-148.88;91.89;75031.84;5018154;28;20500;-77
2022/09/26 07:05:57;;;;;;;13.27;8.85;;;;;;;-148.88;92.27;75017.63;5018451;28;20028;-77
2022/09/26 07:08:24;;;;;;;13.40;8.65;;;;;;;-148.88;91.70;75031.84;5017530;28;20033;-77
2022/09/26 07:10:49;;;;;;;12.35;9.15;;;;;;;-148.88;91.85;75025.75;5018102;28;20026;-78
2022/09/26 07:13:15;;;;;;;14.20;9.70;;;;;;;-148.88;90.93;75021.69;5018582;28;20108;-78
2022/09/26 07:15:44;;;;;;;12.13;9.40;;;;;;;-148.88;90.23;75021.69;5018458;28;20030;-78
2022/09/26 07:18:09;;;;;;;15.32;9.18;;;;;;;-148.88;90.63;75009.50;5017624;28;20065;-78
2022/09/26 07:20:39;;;;;;;12.02;9.55;;;;;;;-148.88;91.36;75005.44;5016272;28;20107;-78
2022/09/26 07:23:09;;;;;;;14.68;9.93;;;;;;;-148.88;91.50;75005.44;5018095;28;20057;-78
2022/09/26 07:25:37;;;;;;;12.30;9.10;;;;;;;-148.88;91.23;74999.34;5017986;28;20054;-77
2022/09/26 07:28:02;;;;;;;11.57;9.38;;;;;;;-148.88;91.47;74981.06;5017986;28;20030;-78
2022/09/26 07:30:28;;;;;;;12.00;9.63;;;;;;;-148.88;90.09;74989.19;5016706;28;20400;-78
2022/09/26 07:32:59;;;;;;;11.98;8.95;;;;;;;-148.88;90.57;74970.91;5017860;28;20018;-78
2022/09/26 07:35:26;;;;;;;15.90;9.50;;;;;;;-148.88;90.20;74968.88;5017566;28;20045;-77
2022/09/26 07:37:51;;;;;;;13.23;9.27;;;;;;;-148.88;89.73;74952.63;5017478;28;20037;-77
2022/09/26 07:40:19;;;;;;;13.57;9.40;;;;;;;-148.88;89.10;74944.53;5016037;28;20018;-77
2022/09/26 07:42:45;;;;;;;14.77;8.70;;;;;;;-148.88;88.99;74940.47;5017871;28;20025;-78
2022/09/26 07:45:11;;;;;;;12.45;9.55;;;;;;;-148.88;88.31;74936.41;5016022;28;20114;-78
2022/09/26 07:50:20;;;;;;;10.80;8.35;;;;;;;-148.88;88.02;74912.03;5017775;28;20036;-78
2022/09/26 07:52:47;;;;;;;13.63;8.15;;;;;;;-148.88;87.94;74912.03;5017057;28;20061;-77
2022/09/26 07:55:19;;;;;;;11.80;8.23;;;;;;;-148.88;87.62;74895.78;5019095;28;20487;-77
2022/09/26 07:57:48;;;;;;;11.13;7.63;;;;;;;-148.88;87.30;74893.75;5018502;28;20476;-77
2022/09/26 08:00:16;;;;;;;11.90;8.50;;;;;;;-148.88;86.79;74879.53;5016696;28;20022;-78
2022/09/26 08:02:44;;;;;;;9.77;6.90;;;;;;;-148.88;86.08;74877.50;5017750;28;20026;-77
2022/09/26 08:05:10;;;;;;;14.30;7.40;;;;;;;-148.88;86.09;74863.28;5017618;28;20029;-78
2022/09/26 08:07:36;;;;;;;10.80;7.32;;;;;;;-148.88;85.36;74863.28;5016189;28;20017;-78
2022/09/26 08:10:06;;;;;;;9.80;7.07;;;;;;;-148.88;85.26;74863.28;5016582;28;20026;-77
2022/09/26 08:12:38;;;;;;;10.02;7.10;;;;;;;-148.88;85.17;74865.31;5017142;28;20029;-77
2022/09/26 08:15:06;;;;;;;12.20;6.70;;;;;;;-148.88;85.32;74851.09;5032332;23;20127;-89
2022/09/26 08:17:33;;;;;;;11.32;6.93;;;;;;;-148.88;85.82;74849.06;5016502;28;20112;-89
2022/09/26 08:19:59;;;;;;;8.23;6.93;;;;;;;-148.88;84.88;74867.34;5015784;28;20030;-89
2022/09/26 08:22:24;;;;;;;10.35;6.75;;;;;;;-148.88;87.27;74867.34;5015064;28;20026;-90
2022/09/26 08:24:50;;;;;;;10.15;7.03;;;;;;;-148.88;87.68;74871.41;5015181;28;20033;-90
2022/09/26 08:27:21;;;;;;;9.57;6.35;;;;;;;-148.88;87.32;74875.47;5014604;28;20049;-89
2022/09/26 08:29:48;;;;;;;11.80;6.85;;;;;;;-148.88;86.88;74873.44;5014313;28;20075;-87
2022/09/26 08:32:15;;;;;;;9.70;7.55;;;;;;;-148.88;87.35;74873.44;5014260;28;20377;-89
2022/09/26 08:34:41;;;;;;;10.27;6.00;;;;;;;-148.88;86.97;74867.34;5014432;28;20030;-90
2022/09/26 08:37:06;;;;;;;11.60;6.40;;;;;;;-148.88;87.25;74855.16;5015868;28;20053;-89
2022/09/26 08:39:31;;;;;;;10.88;5.57;;;;;;;-148.88;85.71;74842.97;5015180;28;20164;-91
2022/09/26 08:42:33;;;;;;;7.57;5.78;;;;;;;-148.88;86.79;74828.75;5014413;28;20117;-91
2022/09/26 08:48:26;;;;;;;8.70;5.15;;;;;;;-148.88;83.56;74800.34;5016018;28;20044;-90
2022/09/26 08:51:20;;;;;;;7.40;5.03;;;;;;;-148.88;83.08;74796.28;5014835;28;20018;-90
2022/09/26 08:54:00;;;;;;;;;;;;;;;-148.88;83.28;74802.38;5015425;28;20381;-88
2022/09/26 08:56:32;;;;;;;10.95;5.40;;;;;;;-148.88;83.94;74782.06;5013811;28;19909;-91
2022/09/26 08:59:02;;;;;;;9.45;5.00;;;;;;;-148.88;82.20;74782.06;5014025;28;20038;-90
2022/09/26 09:01:30;;;;;;;7.97;4.90;;;;;;;-148.88;81.94;74773.94;5014100;28;20124;-89
2022/09/26 09:04:02;;;;;;;11.23;4.88;;;;;;;-148.88;82.06;74780.03;5014428;28;20034;-88
2022/09/26 09:06:27;;;;;;;7.47;4.75;;;;;;;-148.88;82.09;74786.13;5014303;28;20018;-89
2022/09/26 09:08:57;;;;;;;11.13;6.03;;;;;;;-148.88;82.79;74786.13;5014239;28;20025;-89
2022/09/26 09:11:41;;;;;;;9.25;4.25;;;;;;;-148.88;82.83;74782.06;5014399;28;20022;-88
2022/09/26 09:14:34;;;;;;;6.60;4.30;;;;;;;-148.88;81.38;74778.00;5015409;28;20093;-90
2022/09/26 09:17:02;;;;;;;5.40;3.88;;;;;;;-148.88;81.97;74790.19;5013489;28;20116;-88
2022/09/26 09:19:54;;;;;;;8.77;4.40;;;;;;;-148.88;83.96;74778.00;5013387;28;20030;-89
2022/09/26 09:22:54;;;;;;;7.50;3.88;;;;;;;-148.88;81.67;74794.25;5014491;28;20061;-89
2022/09/26 09:25:31;;;;;;;7.47;3.67;;;;;;;-148.88;82.01;74771.91;4983693;28;20042;-88
2022/09/26 09:28:15;;;;;;;6.78;4.07;;;;;;;-148.88;82.70;74773.94;5013412;28;20057;-89
2022/09/26 09:31:03;;;;;;;7.47;3.92;;;;;;;-148.88;83.68;74773.94;5013139;28;20373;-90
2022/09/26 09:33:35;;;;;;;7.80;3.88;;;;;;;-148.88;83.55;74763.78;5013146;28;20115;-89
2022/09/26 09:36:06;;;;;;;8.63;3.83;;;;;;;-148.88;82.73;74761.75;5013994;28;20037;-89
2022/09/26 09:38:35;;;;;;;8.48;4.38;;;;;;;-148.88;84.78;74757.69;5014677;28;20033;-89
2022/09/26 09:41:24;;;;;;;7.50;4.90;;;;;;;-148.88;86.64;74747.53;5013224;28;20025;-88
2022/09/26 09:43:57;;;;;;;6.28;4.20;;;;;;;-148.88;83.86;74782.06;5013131;28;20026;-90
2022/09/26 09:46:31;;;;;;;6.70;3.72;;;;;;;-148.88;86.37;74773.94;5013498;28;20503;-88
2022/09/26 09:49:16;;;;;;;11.02;4.57;;;;;;;-148.88;85.06;74786.13;5013609;28;20400;-88
2022/09/26 09:52:01;;;;;;;6.85;4.35;;;;;;;-148.88;85.10;74802.38;5014318;28;20018;-89
2022/09/26 09:55:08;;;;;;;6.78;3.42;;;;;;;-148.88;85.99;74804.41;5013226;28;20025;-89
2022/09/26 09:57:54;;;;;;;6.63;3.20;;;;;;;-148.88;86.77;74804.41;5013436;28;20026;-89
2022/09/26 10:00:24;;;;;;;7.88;3.80;;;;;;;-148.88;87.52;74796.28;5013330;28;20033;-88
2022/09/26 10:03:10;;;;;;;6.75;3.80;;;;;;;-148.88;89.29;74802.38;5012907;28;20025;-88
2022/09/26 10:05:52;;;;;;;7.55;4.03;;;;;;;-148.88;89.36;74798.31;5013920;28;20030;-89
2022/09/26 10:08:28;;;;;;;6.13;3.67;;;;;;;-148.88;88.93;74800.34;5012832;28;20029;-89
2022/09/26 10:11:09;;;;;;;6.47;3.85;;;;;;;-148.88;89.56;74798.31;5012745;28;20018;-87
2022/09/26 10:13:38;;;;;;;6.93;3.75;;;;;;;-148.88;88.99;74806.44;5013095;28;20022;-90
2022/09/26 10:16:05;;;;;;;5.45;3.65;;;;;;;-148.88;88.63;74810.50;5013003;28;20487;-91
2022/09/26 10:18:32;;;;;;;5.93;3.97;;;;;;;-148.88;89.87;74816.56;5012903;28;20022;-88
2022/09/26 10:21:05;;;;;;;7.63;3.97;;;;;;;-148.88;91.52;74822.66;5013101;28;20014;-89
2022/09/26 10:23:33;;;;;;;4.97;3.58;;;;;;;-148.88;91.95;74818.59;5012952;28;20022;-89
2022/09/26 10:26:04;;;;;;;6.18;3.30;;;;;;;-148.88;90.75;74826.72;5012850;28;20038;-90
2022/09/26 10:28:36;;;;;;;6.13;3.95;;;;;;;-148.88;91.87;74810.50;5014087;28;20018;-88
2022/09/26 10:31:05;;;;;;;6.10;3.50;;;;;;;-148.88;91.29;74808.47;5012778;28;20026;-88
2022/09/26 10:33:33;;;;;;;6.07;3.45;;;;;;;-148.88;91.58;74810.50;5013149;28;20029;-89
2022/09/26 10:36:07;;;;;;;7.53;3.97;;;;;;;-148.88;91.34;74806.44;5013085;28;20084;-88
2022/09/26 10:40:43;;;;;;;4.95;3.40;;;;;;;-148.88;92.37;74802.38;5013425;28;20496;-88
2022/09/26 10:41:23;;;;;;;7.55;3.95;;;;;;;-148.88;92.87;74794.25;5014979;28;20033;-89
2022/09/26 10:43:56;;;;;;;5.90;3.60;;;;;;;-148.88;92.74;74782.06;5012776;28;20026;-88
2022/09/26 10:46:22;;;;;;;5.65;3.63;;;;;;;-148.88;93.76;74794.25;5014034;28;20033;-90
2022/09/26 10:48:55;;;;;;;7.63;4.25;;;;;;;-148.88;93.55;74798.31;4997318;28;20037;-89
2022/09/26 10:51:41;;;;;;;6.13;3.55;;;;;;;-148.88;95.12;74800.34;5014395;28;20018;-89
2022/09/26 10:54:15;;;;;;;7.82;3.85;;;;;;;-148.88;94.81;74798.31;5014546;28;20034;-88
2022/09/26 10:56:44;;;;;;;6.53;3.72;;;;;;;-148.88;95.44;74806.44;5014343;28;20026;-90
2022/09/26 10:59:13;;;;;;;7.00;3.80;;;;;;;-148.88;96.42;74796.28;5013131;28;20033;-89
2022/09/26 11:01:43;;;;;;;6.78;3.85;;;;;;;-148.88;96.14;74804.41;5013378;28;20028;-89
2022/09/26 11:04:13;;;;;;;6.05;3.47;;;;;;;-148.88;97.03;74802.38;5012177;28;20061;-90
2022/09/26 11:06:45;;;;;;;5.63;3.70;;;;;;;-148.88;96.83;74810.50;5012917;28;20021;-90
2022/09/26 11:09:18;;;;;;;6.60;3.75;;;;;;;-148.88;95.73;74834.84;5014289;28;20112;-89
2022/09/26 11:11:46;;;;;;;7.95;4.13;;;;;;;-148.88;96.54;74816.56;5013740;28;20022;-90
2022/09/26 11:14:22;;;;;;;6.50;3.60;;;;;;;-148.88;96.59;74816.56;5015727;28;20034;-91
2022/09/26 11:16:53;;;;;;;7.90;3.92;;;;;;;-148.88;96.51;74812.53;5013707;28;20492;-89
2022/09/26 11:20:01;;;;;;;8.75;3.92;;;;;;;-148.88;96.53;74798.31;5013188;28;20060;-89
2022/09/26 11:22:36;;;;;;;6.40;3.53;;;;;;;-148.88;96.98;74773.94;4937302;29;20421;-88
2022/09/26 11:25:07;;;;;;;7.18;4.30;;;;;;;-148.88;97.69;74773.94;5005034;28;20128;-90
2022/09/26 11:27:52;;;;;;;8.52;4.55;;;;;;;-148.88;97.88;74767.84;5012474;28;20032;-89
2022/09/26 11:30:20;;;;;;;6.80;3.92;;;;;;;-148.88;97.91;74755.66;5011807;28;20069;-87
2022/09/26 11:32:51;;;;;;;5.97;4.20;;;;;;;-148.88;97.92;74751.59;5012221;28;20029;-89
2022/09/26 11:35:32;;;;;;;7.35;3.88;;;;;;;-148.88;97.71;74755.66;5012005;28;20105;-88
2022/09/26 11:38:21;;;;;;;9.45;4.20;;;;;;;-148.88;97.15;74761.75;5013144;28;20022;-88
2022/09/26 11:40:58;;;;;;;6.18;4.50;;;;;;;-148.88;98.13;74759.72;5013690;28;20108;-89
2022/09/26 11:43:43;;;;;;;6.63;4.70;;;;;;;-148.88;98.02;74763.78;5016859;28;20493;-89
2022/09/26 11:46:27;;;;;;;5.35;4.22;;;;;;;-148.88;97.13;74769.88;5015435;28;20022;-90